Yuriy Lisyanskiy — UIRX — position and weather

sailwx.info

Track history (hours):
 
Tides and Currents Weather Stations Pressure Air Temp Water Temp Dewpoint Dewpoint Depression Visibility Wind Speed Wind Dir Waves Ship Positions

Yuriy Lisyanskiy

Last reported at 2016-Feb-12 22:33 UTC. Time now 2016-Feb-13 00:34 UTC.
Position N 59°57' E 029°53'.

Length 64 m; draft 5.8 m.

Type: Other ship. MMSI: 273426110.

Date/timePositionNaut miles runAvg speedWind from/ knotsBaromVisibWave heightAir tempDewpointWater temp
2016-Feb-12 22:33N 59°57' E 029°53'10 9.6
2016-Feb-12 21:33N 59°53' E 030°10'1 1.2
2016-Feb-12 20:32N 59°53' E 030°13'0 0.0
2016-Feb-12 19:32N 59°53' E 030°13'0 0.0
2016-Feb-12 18:33N 59°53' E 030°13'0 0.0
2016-Feb-12 17:33N 59°53' E 030°13'0 0.0
2016-Feb-12 16:32N 59°53' E 030°13'0 0.0
2016-Feb-12 15:31N 59°53' E 030°13'0 0.0
2016-Feb-12 14:31N 59°53' E 030°13'0 0.0
2016-Feb-12 13:32N 59°53' E 030°13'0 0.0
2016-Feb-12 12:33N 59°53' E 030°13'0 0.0
2016-Feb-12 11:32N 59°53' E 030°13'0 0.0
2016-Feb-12 10:32N 59°53' E 030°13'0 0.0
2016-Feb-12 09:30N 59°53' E 030°13'0 0.0
2016-Feb-12 08:31N 59°53' E 030°13'0 0.0
2016-Feb-12 07:31N 59°53' E 030°13'0 0.0
2016-Feb-12 06:33N 59°53' E 030°13'0 0.0
2016-Feb-12 05:33N 59°53' E 030°13'0 0.1
2016-Feb-12 04:33N 59°53' E 030°13'0 0.0
2016-Feb-12 03:33N 59°53' E 030°13'1 0.9
2016-Feb-12 02:33N 59°53' E 030°11'9 9.3
2016-Feb-12 01:33N 59°57' E 029°54'4 0.2
2016-Feb-10 20:16N 59°59' E 029°46'6 8.0
2016-Feb-10 19:33N 59°56' E 029°56'8 8.1
2016-Feb-10 18:34N 59°53' E 030°11'1 1.0
2016-Feb-10 17:31N 59°53' E 030°13'0 0.0
2016-Feb-10 16:29N 59°53' E 030°13'0 0.0
2016-Feb-10 15:33N 59°53' E 030°13'0 0.0
2016-Feb-10 14:32N 59°53' E 030°13'0 0.0
2016-Feb-10 13:32N 59°53' E 030°13'0 0.0
2016-Feb-10 12:31N 59°53' E 030°13'0 0.0
2016-Feb-10 11:33N 59°53' E 030°13'0 0.0
2016-Feb-10 10:27N 59°53' E 030°13'0 0.0
2016-Feb-10 09:33N 59°53' E 030°13'0 0.0
2016-Feb-10 08:33N 59°53' E 030°13'3 2.7
2016-Feb-10 07:33N 59°54' E 030°08'9 9.1
2016-Feb-10 06:33N 59°57' E 029°51'3 0.4
2016-Feb-10 00:22N 59°59' E 029°46'1011.7
2016-Feb-09 23:33N 59°55' E 030°03'5 4.8
2016-Feb-09 22:31N 59°53' E 030°13'0 0.0
2016-Feb-09 21:33N 59°53' E 030°13'0 0.0
2016-Feb-09 20:32N 59°53' E 030°13'0 0.0
2016-Feb-09 19:32N 59°53' E 030°13'0 0.0
2016-Feb-09 18:32N 59°53' E 030°13'1 1.5
2016-Feb-09 17:33N 59°53' E 030°10'9 9.4
2016-Feb-09 16:33N 59°57' E 029°52'4 0.2
2016-Feb-08 23:23N 59°59' E 029°45'8 9.2
2016-Feb-08 22:33N 59°56' E 029°59'7 7.1
2016-Feb-08 21:33N 59°53' E 030°12'0 0.1
2016-Feb-08 20:33N 59°53' E 030°13'0 0.0
2016-Feb-08 19:30N 59°53' E 030°13'0 0.0
2016-Feb-08 18:32N 59°53' E 030°13'0 0.0
2016-Feb-08 17:31N 59°53' E 030°13'0 0.0
2016-Feb-08 16:32N 59°53' E 030°13'0 0.0
2016-Feb-08 15:31N 59°53' E 030°13'0 0.0
2016-Feb-08 14:31N 59°53' E 030°13'0 0.0
2016-Feb-08 13:31N 59°53' E 030°13'0 0.0
2016-Feb-08 12:31N 59°53' E 030°13'0 0.0
2016-Feb-08 11:31N 59°53' E 030°13'0 0.0
2016-Feb-08 10:27N 59°53' E 030°13'0 0.0
2016-Feb-08 09:25N 59°53' E 030°13'0 0.0
2016-Feb-08 08:32N 59°53' E 030°13'0 0.0
2016-Feb-08 07:31N 59°53' E 030°13'0 0.0
2016-Feb-08 06:32N 59°53' E 030°13'0 0.2
2016-Feb-08 05:33N 59°53' E 030°12'8 8.0
2016-Feb-08 04:33N 59°56' E 029°57'5 0.3
2016-Feb-07 10:29N 59°58' E 029°48'1010.3
2016-Feb-07 09:33N 59°54' E 030°05'2 2.3
2016-Feb-07 08:33N 59°53' E 030°10'3 2.8
2016-Feb-07 07:33N 59°55' E 030°14'0 0.0
2016-Feb-07 06:32N 59°55' E 030°14'0 0.0
2016-Feb-07 05:31N 59°55' E 030°14'0 0.0
2016-Feb-07 04:32N 59°55' E 030°14'0 0.0
2016-Feb-07 03:31N 59°55' E 030°14'0 0.0
2016-Feb-07 02:28N 59°55' E 030°14'0 0.0
2016-Feb-07 01:31N 59°55' E 030°14'0 0.0
2016-Feb-07 00:32N 59°55' E 030°14'0 0.0
2016-Feb-06 23:31N 59°55' E 030°14'0 0.0
2016-Feb-06 22:32N 59°55' E 030°14'0 0.0
2016-Feb-06 21:33N 59°55' E 030°14'0 0.0
2016-Feb-06 20:33N 59°55' E 030°14'0 0.0
2016-Feb-06 19:32N 59°55' E 030°14'0 0.0
2016-Feb-06 18:28N 59°55' E 030°14'0 0.0
2016-Feb-06 17:31N 59°55' E 030°14'0 0.0
2016-Feb-06 16:29N 59°55' E 030°14'0 0.0
2016-Feb-06 15:31N 59°55' E 030°14'0 0.0
2016-Feb-06 14:32N 59°55' E 030°14'0 0.0
2016-Feb-06 13:32N 59°55' E 030°14'0 0.0
2016-Feb-06 12:33N 59°55' E 030°14'0 0.0
2016-Feb-06 11:30N 59°55' E 030°14'0 0.0
2016-Feb-06 10:31N 59°55' E 030°14'0 0.0
2016-Feb-06 09:31N 59°55' E 030°14'0 0.0
2016-Feb-06 08:32N 59°55' E 030°14'0 0.0
2016-Feb-06 07:33N 59°55' E 030°14'0 0.0
2016-Feb-06 06:27N 59°55' E 030°14'0 0.0
2016-Feb-06 05:32N 59°55' E 030°14'0 0.0
2016-Feb-06 04:32N 59°55' E 030°14'0 0.0
2016-Feb-06 03:32N 59°55' E 030°14'0 0.0
2016-Feb-06 02:33N 59°55' E 030°14'0 0.0
2016-Feb-06 01:33N 59°55' E 030°14'0 0.0
2016-Feb-06 00:28N 59°55' E 030°14'0 0.0
2016-Feb-05 23:31N 59°55' E 030°14'0 0.0
2016-Feb-05 22:33N 59°55' E 030°14'0 0.0
2016-Feb-05 21:32N 59°55' E 030°14'0 0.0
2016-Feb-05 20:32N 59°55' E 030°14'0 0.0
2016-Feb-05 19:33N 59°55' E 030°14'0 0.0
2016-Feb-05 18:27N 59°55' E 030°14'0 0.0
2016-Feb-05 17:32N 59°55' E 030°14'0 0.0
2016-Feb-05 16:31N 59°55' E 030°14'0 0.0
2016-Feb-05 15:32N 59°55' E 030°14'0 0.0
2016-Feb-05 14:32N 59°55' E 030°14'0 0.0
2016-Feb-05 13:30N 59°55' E 030°14'0 0.0
2016-Feb-05 12:30N 59°55' E 030°14'0 0.0
2016-Feb-05 11:33N 59°55' E 030°14'0 0.0
2016-Feb-05 10:29N 59°55' E 030°14'0 0.0
2016-Feb-05 09:31N 59°55' E 030°14'0 0.0
2016-Feb-05 08:29N 59°55' E 030°14'0 0.0
2016-Feb-05 07:31N 59°55' E 030°14'0 0.0
2016-Feb-05 06:32N 59°55' E 030°14'0 0.0
2016-Feb-05 05:33N 59°55' E 030°14'0 0.0
2016-Feb-05 04:32N 59°55' E 030°14'0 0.0
2016-Feb-05 03:30N 59°55' E 030°14'0 0.0
2016-Feb-05 02:32N 59°55' E 030°14'0 0.0
2016-Feb-05 01:31N 59°55' E 030°14'0 0.0
2016-Feb-05 00:31N 59°55' E 030°14'0 0.0
2016-Feb-04 23:32N 59°55' E 030°14'0 0.0
2016-Feb-04 22:32N 59°55' E 030°14'0 0.0
2016-Feb-04 21:33N 59°55' E 030°14'0 0.0
2016-Feb-04 20:32N 59°55' E 030°14'0 0.0
2016-Feb-04 19:32N 59°55' E 030°14'0 0.0
2016-Feb-04 18:32N 59°55' E 030°14'0 0.0
2016-Feb-04 17:32N 59°55' E 030°14'0 0.0
2016-Feb-04 16:30N 59°55' E 030°14'0 0.0
2016-Feb-04 15:31N 59°55' E 030°14'0 0.0
2016-Feb-04 14:33N 59°55' E 030°14'0 0.0
2016-Feb-04 13:31N 59°55' E 030°14'0 0.0
2016-Feb-04 12:20N 59°55' E 030°14'0 0.0
2016-Feb-04 11:32N 59°55' E 030°14'0 0.0
2016-Feb-04 10:31N 59°55' E 030°14'0 0.0
2016-Feb-04 09:32N 59°55' E 030°14'0 0.0
2016-Feb-04 08:31N 59°55' E 030°14'0 0.0
2016-Feb-04 07:32N 59°55' E 030°14'0 0.0
2016-Feb-04 06:34N 59°55' E 030°14'0 0.0
2016-Feb-04 05:33N 59°55' E 030°14'0 0.0
2016-Feb-04 04:33N 59°55' E 030°14'5 5.3
2016-Feb-04 03:33N 59°55' E 030°04'9 8.5
2016-Feb-04 02:33N 59°58' E 029°48'1 0.1
2016-Feb-03 10:06N 59°59' E 029°46'610.1
2016-Feb-03 09:33N 59°56' E 029°56'9 8.8
2016-Feb-03 08:33N 59°53' E 030°12'0 0.2
2016-Feb-03 07:32N 59°53' E 030°13'0 0.0
2016-Feb-03 06:29N 59°53' E 030°13'0 0.0
2016-Feb-03 05:33N 59°53' E 030°13'0 0.0
2016-Feb-03 04:32N 59°53' E 030°13'0 0.0
2016-Feb-03 03:27N 59°53' E 030°13'0 0.0
2016-Feb-03 02:31N 59°53' E 030°13'0 0.0
2016-Feb-03 01:31N 59°53' E 030°13'0 0.0
2016-Feb-03 00:28N 59°53' E 030°13'0 0.0
2016-Feb-02 23:31N 59°53' E 030°13'  
Track history (hours):
 
Tides and Currents Weather Stations Pressure Air Temp Water Temp Dewpoint Dewpoint Depression Visibility Wind Speed Wind Dir Waves Ship Positions

Yuriy Lisyanskiy

Last reported at 2016-Feb-12 22:33 UTC. Time now 2016-Feb-13 00:34 UTC.
Position N 59°57' E 029°53'.

Length 64 m; draft 5.8 m.

Type: Other ship. MMSI: 273426110.

Date/timePositionNaut miles runAvg speedWind from/ knotsBaromVisibWave heightAir tempDewpointWater temp
2016-Feb-12 22:33N 59°57' E 029°53'10 9.6
2016-Feb-12 21:33N 59°53' E 030°10'1 1.2
2016-Feb-12 20:32N 59°53' E 030°13'0 0.0
2016-Feb-12 19:32N 59°53' E 030°13'0 0.0
2016-Feb-12 18:33N 59°53' E 030°13'0 0.0
2016-Feb-12 17:33N 59°53' E 030°13'0 0.0
2016-Feb-12 16:32N 59°53' E 030°13'0 0.0
2016-Feb-12 15:31N 59°53' E 030°13'0 0.0
2016-Feb-12 14:31N 59°53' E 030°13'0 0.0
2016-Feb-12 13:32N 59°53' E 030°13'0 0.0
2016-Feb-12 12:33N 59°53' E 030°13'0 0.0
2016-Feb-12 11:32N 59°53' E 030°13'0 0.0
2016-Feb-12 10:32N 59°53' E 030°13'0 0.0
2016-Feb-12 09:30N 59°53' E 030°13'0 0.0
2016-Feb-12 08:31N 59°53' E 030°13'0 0.0
2016-Feb-12 07:31N 59°53' E 030°13'0 0.0
2016-Feb-12 06:33N 59°53' E 030°13'0 0.0
2016-Feb-12 05:33N 59°53' E 030°13'0 0.1
2016-Feb-12 04:33N 59°53' E 030°13'0 0.0
2016-Feb-12 03:33N 59°53' E 030°13'1 0.9
2016-Feb-12 02:33N 59°53' E 030°11'9 9.3
2016-Feb-12 01:33N 59°57' E 029°54'4 0.2
2016-Feb-10 20:16N 59°59' E 029°46'6 8.0
2016-Feb-10 19:33N 59°56' E 029°56'8 8.1
2016-Feb-10 18:34N 59°53' E 030°11'1 1.0
2016-Feb-10 17:31N 59°53' E 030°13'0 0.0
2016-Feb-10 16:29N 59°53' E 030°13'0 0.0
2016-Feb-10 15:33N 59°53' E 030°13'0 0.0
2016-Feb-10 14:32N 59°53' E 030°13'0 0.0
2016-Feb-10 13:32N 59°53' E 030°13'0 0.0
2016-Feb-10 12:31N 59°53' E 030°13'0 0.0
2016-Feb-10 11:33N 59°53' E 030°13'0 0.0
2016-Feb-10 10:27N 59°53' E 030°13'0 0.0
2016-Feb-10 09:33N 59°53' E 030°13'0 0.0
2016-Feb-10 08:33N 59°53' E 030°13'3 2.7
2016-Feb-10 07:33N 59°54' E 030°08'9 9.1
2016-Feb-10 06:33N 59°57' E 029°51'3 0.4
2016-Feb-10 00:22N 59°59' E 029°46'1011.7
2016-Feb-09 23:33N 59°55' E 030°03'5 4.8
2016-Feb-09 22:31N 59°53' E 030°13'0 0.0
2016-Feb-09 21:33N 59°53' E 030°13'0 0.0
2016-Feb-09 20:32N 59°53' E 030°13'0 0.0
2016-Feb-09 19:32N 59°53' E 030°13'0 0.0
2016-Feb-09 18:32N 59°53' E 030°13'1 1.5
2016-Feb-09 17:33N 59°53' E 030°10'9 9.4
2016-Feb-09 16:33N 59°57' E 029°52'4 0.2
2016-Feb-08 23:23N 59°59' E 029°45'8 9.2
2016-Feb-08 22:33N 59°56' E 029°59'7 7.1
2016-Feb-08 21:33N 59°53' E 030°12'0 0.1
2016-Feb-08 20:33N 59°53' E 030°13'0 0.0
2016-Feb-08 19:30N 59°53' E 030°13'0 0.0
2016-Feb-08 18:32N 59°53' E 030°13'0 0.0
2016-Feb-08 17:31N 59°53' E 030°13'0 0.0
2016-Feb-08 16:32N 59°53' E 030°13'0 0.0
2016-Feb-08 15:31N 59°53' E 030°13'0 0.0
2016-Feb-08 14:31N 59°53' E 030°13'0 0.0
2016-Feb-08 13:31N 59°53' E 030°13'0 0.0
2016-Feb-08 12:31N 59°53' E 030°13'0 0.0
2016-Feb-08 11:31N 59°53' E 030°13'0 0.0
2016-Feb-08 10:27N 59°53' E 030°13'0 0.0
2016-Feb-08 09:25N 59°53' E 030°13'0 0.0
2016-Feb-08 08:32N 59°53' E 030°13'0 0.0
2016-Feb-08 07:31N 59°53' E 030°13'0 0.0
2016-Feb-08 06:32N 59°53' E 030°13'0 0.2
2016-Feb-08 05:33N 59°53' E 030°12'8 8.0
2016-Feb-08 04:33N 59°56' E 029°57'5 0.3
2016-Feb-07 10:29N 59°58' E 029°48'1010.3
2016-Feb-07 09:33N 59°54' E 030°05'2 2.3
2016-Feb-07 08:33N 59°53' E 030°10'3 2.8
2016-Feb-07 07:33N 59°55' E 030°14'0 0.0
2016-Feb-07 06:32N 59°55' E 030°14'0 0.0
2016-Feb-07 05:31N 59°55' E 030°14'0 0.0
2016-Feb-07 04:32N 59°55' E 030°14'0 0.0
2016-Feb-07 03:31N 59°55' E 030°14'0 0.0
2016-Feb-07 02:28N 59°55' E 030°14'0 0.0
2016-Feb-07 01:31N 59°55' E 030°14'0 0.0
2016-Feb-07 00:32N 59°55' E 030°14'0 0.0
2016-Feb-06 23:31N 59°55' E 030°14'0 0.0
2016-Feb-06 22:32N 59°55' E 030°14'0 0.0
2016-Feb-06 21:33N 59°55' E 030°14'0 0.0
2016-Feb-06 20:33N 59°55' E 030°14'0 0.0
2016-Feb-06 19:32N 59°55' E 030°14'0 0.0
2016-Feb-06 18:28N 59°55' E 030°14'0 0.0
2016-Feb-06 17:31N 59°55' E 030°14'0 0.0
2016-Feb-06 16:29N 59°55' E 030°14'0 0.0
2016-Feb-06 15:31N 59°55' E 030°14'0 0.0
2016-Feb-06 14:32N 59°55' E 030°14'0 0.0
2016-Feb-06 13:32N 59°55' E 030°14'0 0.0
2016-Feb-06 12:33N 59°55' E 030°14'0 0.0
2016-Feb-06 11:30N 59°55' E 030°14'0 0.0
2016-Feb-06 10:31N 59°55' E 030°14'0 0.0
2016-Feb-06 09:31N 59°55' E 030°14'0 0.0
2016-Feb-06 08:32N 59°55' E 030°14'0 0.0
2016-Feb-06 07:33N 59°55' E 030°14'0 0.0
2016-Feb-06 06:27N 59°55' E 030°14'0 0.0
2016-Feb-06 05:32N 59°55' E 030°14'0 0.0
2016-Feb-06 04:32N 59°55' E 030°14'0 0.0
2016-Feb-06 03:32N 59°55' E 030°14'0 0.0
2016-Feb-06 02:33N 59°55' E 030°14'0 0.0
2016-Feb-06 01:33N 59°55' E 030°14'0 0.0
2016-Feb-06 00:28N 59°55' E 030°14'0 0.0
2016-Feb-05 23:31N 59°55' E 030°14'0 0.0
2016-Feb-05 22:33N 59°55' E 030°14'0 0.0
2016-Feb-05 21:32N 59°55' E 030°14'0 0.0
2016-Feb-05 20:32N 59°55' E 030°14'0 0.0
2016-Feb-05 19:33N 59°55' E 030°14'0 0.0
2016-Feb-05 18:27N 59°55' E 030°14'0 0.0
2016-Feb-05 17:32N 59°55' E 030°14'0 0.0
2016-Feb-05 16:31N 59°55' E 030°14'0 0.0
2016-Feb-05 15:32N 59°55' E 030°14'0 0.0
2016-Feb-05 14:32N 59°55' E 030°14'0 0.0
2016-Feb-05 13:30N 59°55' E 030°14'0 0.0
2016-Feb-05 12:30N 59°55' E 030°14'0 0.0
2016-Feb-05 11:33N 59°55' E 030°14'0 0.0
2016-Feb-05 10:29N 59°55' E 030°14'0 0.0
2016-Feb-05 09:31N 59°55' E 030°14'0 0.0
2016-Feb-05 08:29N 59°55' E 030°14'0 0.0
2016-Feb-05 07:31N 59°55' E 030°14'0 0.0
2016-Feb-05 06:32N 59°55' E 030°14'0 0.0
2016-Feb-05 05:33N 59°55' E 030°14'0 0.0
2016-Feb-05 04:32N 59°55' E 030°14'0 0.0
2016-Feb-05 03:30N 59°55' E 030°14'0 0.0
2016-Feb-05 02:32N 59°55' E 030°14'0 0.0
2016-Feb-05 01:31N 59°55' E 030°14'0 0.0
2016-Feb-05 00:31N 59°55' E 030°14'0 0.0
2016-Feb-04 23:32N 59°55' E 030°14'0 0.0
2016-Feb-04 22:32N 59°55' E 030°14'0 0.0
2016-Feb-04 21:33N 59°55' E 030°14'0 0.0
2016-Feb-04 20:32N 59°55' E 030°14'0 0.0
2016-Feb-04 19:32N 59°55' E 030°14'0 0.0
2016-Feb-04 18:32N 59°55' E 030°14'0 0.0
2016-Feb-04 17:32N 59°55' E 030°14'0 0.0
2016-Feb-04 16:30N 59°55' E 030°14'0 0.0
2016-Feb-04 15:31N 59°55' E 030°14'0 0.0
2016-Feb-04 14:33N 59°55' E 030°14'0 0.0
2016-Feb-04 13:31N 59°55' E 030°14'0 0.0
2016-Feb-04 12:20N 59°55' E 030°14'0 0.0
2016-Feb-04 11:32N 59°55' E 030°14'0 0.0
2016-Feb-04 10:31N 59°55' E 030°14'0 0.0
2016-Feb-04 09:32N 59°55' E 030°14'0 0.0
2016-Feb-04 08:31N 59°55' E 030°14'0 0.0
2016-Feb-04 07:32N 59°55' E 030°14'0 0.0
2016-Feb-04 06:34N 59°55' E 030°14'0 0.0
2016-Feb-04 05:33N 59°55' E 030°14'0 0.0
2016-Feb-04 04:33N 59°55' E 030°14'5 5.3
2016-Feb-04 03:33N 59°55' E 030°04'9 8.5
2016-Feb-04 02:33N 59°58' E 029°48'1 0.1
2016-Feb-03 10:06N 59°59' E 029°46'610.1
2016-Feb-03 09:33N 59°56' E 029°56'9 8.8
2016-Feb-03 08:33N 59°53' E 030°12'0 0.2
2016-Feb-03 07:32N 59°53' E 030°13'0 0.0
2016-Feb-03 06:29N 59°53' E 030°13'0 0.0
2016-Feb-03 05:33N 59°53' E 030°13'0 0.0
2016-Feb-03 04:32N 59°53' E 030°13'0 0.0
2016-Feb-03 03:27N 59°53' E 030°13'0 0.0
2016-Feb-03 02:31N 59°53' E 030°13'0 0.0
2016-Feb-03 01:31N 59°53' E 030°13'0 0.0
2016-Feb-03 00:28N 59°53' E 030°13'0 0.0
2016-Feb-02 23:31N 59°53' E 030°13'  

Dump ship's entire track history